TimePST,TemperatureF,Dew PointF,Humidity,Sea Level PressureIn,VisibilityMPH,Wind Direction,Wind SpeedMPH,Gust SpeedMPH,PrecipitationIn,Events,Conditions,WindDirDegrees,DateUTC
12:53 AM,36.0,32.0,86,30.15,5.0,Calm,Calm,-,N/A,,Clear,0,2013-01-22 08:53:00
1:53 AM,37.9,34.0,86,30.14,7.0,Calm,Calm,-,N/A,,Clear,0,2013-01-22 09:53:00
2:53 AM,37.9,35.1,89,30.14,6.0,Calm,Calm,-,N/A,,Clear,0,2013-01-22 10:53:00
3:53 AM,39.0,34.0,82,30.13,10.0,North,4.6,-,N/A,,Clear,10,2013-01-22 11:53:00
4:53 AM,37.0,34.0,89,30.12,10.0,NNE,5.8,-,N/A,,Clear,20,2013-01-22 12:53:00
5:53 AM,35.1,32.0,89,30.12,5.0,Calm,Calm,-,N/A,,Clear,0,2013-01-22 13:53:00
6:53 AM,32.0,30.0,92,30.13,4.0,Calm,Calm,-,N/A,,Clear,0,2013-01-22 14:53:00
7:53 AM,33.1,28.9,85,30.14,6.0,Calm,Calm,-,N/A,,Clear,0,2013-01-22 15:53:00
8:53 AM,39.9,36.0,86,30.17,7.0,NNW,40.3,80.6,N/A,,Clear,340,2013-01-22 16:53:00
9:01 AM,41.0,35.6,81,30.17,8.0,Calm,Calm,-,N/A,,Clear,0,2013-01-22 17:01:00
9:53 AM,46.0,37.9,73,30.17,8.0,Variable,3.5,-,N/A,,Clear,0,2013-01-22 17:53:00
10:53 AM,50.0,37.0,61,30.16,10.0,Calm,Calm,-,N/A,,Clear,0,2013-01-22 18:53:00
11:53 AM,55.0,37.9,53,30.13,10.0,Calm,Calm,-,N/A,,Clear,0,2013-01-22 19:53:00
12:53 PM,57.9,37.9,47,30.09,10.0,Calm,Calm,-,N/A,,Clear,0,2013-01-22 20:53:00
1:53 PM,59.0,39.9,49,30.07,10.0,WNW,4.6,-,N/A,,Clear,290,2013-01-22 21:53:00
2:53 PM,57.9,39.0,49,30.06,10.0,Calm,Calm,-,N/A,,Clear,0,2013-01-22 22:53:00
3:53 PM,57.9,39.0,49,30.05,10.0,West,4.6,-,N/A,,Clear,280,2013-01-22 23:53:00
4:53 PM,55.0,37.9,53,30.05,10.0,Calm,Calm,-,N/A,,Clear,0,2013-01-23 00:53:00
5:53 PM,50.0,39.0,66,30.05,10.0,Calm,Calm,-,N/A,,Clear,0,2013-01-23 01:53:00
6:53 PM,46.9,37.9,71,30.06,10.0,Calm,Calm,-,N/A,,Clear,0,2013-01-23 02:53:00
7:53 PM,46.0,37.9,73,30.05,10.0,Calm,Calm,-,N/A,,Clear,0,2013-01-23 03:53:00
8:53 PM,46.0,39.0,76,30.05,10.0,Calm,Calm,-,N/A,,Clear,0,2013-01-23 04:53:00
9:53 PM,44.6,39.2,81,30.07,10.0,Calm,Calm,-,N/A,,Clear,0,2013-01-23 05:53:00
10:53 PM,44.1,39.0,82,30.08,9.0,Calm,Calm,-,N/A,,Clear,0,2013-01-23 06:53:00
11:53 PM,43.0,37.9,82,30.07,9.0,Calm,Calm,-,N/A,,Clear,0,2013-01-23 07:53:00